SEKCJA WYDRUKÓW, pokaż »

METAR EPBY 250730Z 12015KT 090V150 CAVOK 26/10 Q1013=

METAR EPGD 250730Z 14011KT CAVOK 23/12 Q1015 =

METAR EPKK 250730Z VRB03KT CAVOK 23/13 Q1013 =

METAR EPKT 250730Z 13004KT 100V170 CAVOK 24/14 Q1013 =

METAR EPLB 250730Z 12007KT CAVOK 26/13 Q1016 =

METAR EPLL 250730Z 12008KT 080V160 CAVOK 24/13 Q1014 =

METAR EPML 250730Z AUTO 11008KT 070V140 9999 NCD 26/12 Q1014=

METAR EPMO 250730Z 09008KT 060V120 CAVOK 26/13 Q1015 =

METAR EPPO 250730Z 12006KT CAVOK 24/13 Q1012 =

METAR EPRA 250730Z NIL=

METAR EPRZ 250730Z 10010KT 070V130 CAVOK 24/13 Q1014 =

METAR EPSC 250730Z VRB02KT CAVOK 22/16 Q1012 =

METAR EPSY 250730Z 11008KT 080V150 CAVOK 25/13 Q1016=

METAR EPWA 250730Z 11009KT CAVOK 26/13 Q1015 NOSIG=

METAR EPWR 250730Z 17004KT 110V220 CAVOK 25/15 Q1012 =

METAR EPZG 250730Z 08005KT 050V120 CAVOK 24/14 Q1011 =